sensor_id;sensor_type;location;lat;lon;timestamp;P1;durP1;ratioP1;P2;durP2;ratioP2
50012;SDS011;35901;48.694;9.476;2023-03-23T00:01:13;5.30;;;4.57;;
50012;SDS011;35901;48.694;9.476;2023-03-23T00:03:44;5.87;;;4.10;;
50012;SDS011;35901;48.694;9.476;2023-03-23T00:06:11;4.90;;;4.40;;
50012;SDS011;35901;48.694;9.476;2023-03-23T00:08:42;5.93;;;4.43;;
50012;SDS011;35901;48.694;9.476;2023-03-23T00:11:13;4.30;;;3.90;;
50012;SDS011;35901;48.694;9.476;2023-03-23T00:13:41;5.03;;;4.43;;
50012;SDS011;35901;48.694;9.476;2023-03-23T00:16:09;4.37;;;3.97;;
50012;SDS011;35901;48.694;9.476;2023-03-23T00:18:45;4.53;;;4.00;;
50012;SDS011;35901;48.694;9.476;2023-03-23T00:21:12;5.03;;;3.80;;
50012;SDS011;35901;48.694;9.476;2023-03-23T00:23:38;4.60;;;4.20;;
50012;SDS011;35901;48.694;9.476;2023-03-23T00:26:05;6.77;;;4.40;;
50012;SDS011;35901;48.694;9.476;2023-03-23T00:28:31;4.53;;;3.83;;
50012;SDS011;35901;48.694;9.476;2023-03-23T00:31:03;5.00;;;3.63;;
50012;SDS011;35901;48.694;9.476;2023-03-23T00:33:34;3.90;;;3.50;;
50012;SDS011;35901;48.694;9.476;2023-03-23T00:36:09;4.03;;;3.63;;
50012;SDS011;35901;48.694;9.476;2023-03-23T00:38:36;3.80;;;3.40;;
50012;SDS011;35901;48.694;9.476;2023-03-23T00:41:03;3.50;;;3.20;;
50012;SDS011;35901;48.694;9.476;2023-03-23T00:43:29;3.50;;;3.20;;
50012;SDS011;35901;48.694;9.476;2023-03-23T00:45:56;4.40;;;3.43;;
50012;SDS011;35901;48.694;9.476;2023-03-23T00:48:25;3.00;;;2.70;;
50012;SDS011;35901;48.694;9.476;2023-03-23T00:50:53;4.20;;;3.80;;
50012;SDS011;35901;48.694;9.476;2023-03-23T00:53:20;4.20;;;3.30;;
50012;SDS011;35901;48.694;9.476;2023-03-23T00:55:46;3.30;;;3.00;;
50012;SDS011;35901;48.694;9.476;2023-03-23T00:58:13;4.30;;;3.43;;
50012;SDS011;35901;48.694;9.476;2023-03-23T01:00:40;3.73;;;3.43;;
50012;SDS011;35901;48.694;9.476;2023-03-23T01:03:06;5.27;;;3.70;;
50012;SDS011;35901;48.694;9.476;2023-03-23T01:05:35;4.30;;;3.60;;
50012;SDS011;35901;48.694;9.476;2023-03-23T01:08:02;3.77;;;3.43;;
50012;SDS011;35901;48.694;9.476;2023-03-23T01:10:29;5.43;;;4.10;;
50012;SDS011;35901;48.694;9.476;2023-03-23T01:13:00;4.40;;;4.00;;
50012;SDS011;35901;48.694;9.476;2023-03-23T01:15:26;3.90;;;3.43;;
50012;SDS011;35901;48.694;9.476;2023-03-23T01:17:53;4.00;;;3.60;;
50012;SDS011;35901;48.694;9.476;2023-03-23T01:20:19;4.77;;;4.27;;
50012;SDS011;35901;48.694;9.476;2023-03-23T01:22:45;4.57;;;3.60;;
50012;SDS011;35901;48.694;9.476;2023-03-23T01:25:12;3.60;;;3.30;;
50012;SDS011;35901;48.694;9.476;2023-03-23T01:27:38;4.23;;;3.77;;
50012;SDS011;35901;48.694;9.476;2023-03-23T01:30:04;3.60;;;3.30;;
50012;SDS011;35901;48.694;9.476;2023-03-23T01:32:31;5.73;;;3.60;;
50012;SDS011;35901;48.694;9.476;2023-03-23T01:34:57;4.20;;;3.70;;
50012;SDS011;35901;48.694;9.476;2023-03-23T01:37:23;3.73;;;3.40;;
50012;SDS011;35901;48.694;9.476;2023-03-23T01:39:52;4.27;;;3.60;;
50012;SDS011;35901;48.694;9.476;2023-03-23T01:42:21;4.20;;;3.40;;
50012;SDS011;35901;48.694;9.476;2023-03-23T01:47:15;3.50;;;3.20;;
50012;SDS011;35901;48.694;9.476;2023-03-23T01:49:46;3.80;;;3.50;;
50012;SDS011;35901;48.694;9.476;2023-03-23T01:52:18;3.67;;;3.37;;
50012;SDS011;35901;48.694;9.476;2023-03-23T01:54:49;4.60;;;4.20;;
50012;SDS011;35901;48.694;9.476;2023-03-23T01:57:18;4.37;;;3.70;;
50012;SDS011;35901;48.694;9.476;2023-03-23T01:59:47;5.60;;;3.70;;
50012;SDS011;35901;48.694;9.476;2023-03-23T02:02:19;3.90;;;3.60;;
50012;SDS011;35901;48.694;9.476;2023-03-23T02:04:47;4.03;;;3.70;;
50012;SDS011;35901;48.694;9.476;2023-03-23T02:07:14;4.53;;;4.13;;
50012;SDS011;35901;48.694;9.476;2023-03-23T02:09:42;4.10;;;3.70;;
50012;SDS011;35901;48.694;9.476;2023-03-23T02:12:08;4.00;;;3.53;;
50012;SDS011;35901;48.694;9.476;2023-03-23T02:14:36;4.60;;;3.93;;
50012;SDS011;35901;48.694;9.476;2023-03-23T02:17:07;4.77;;;3.67;;
50012;SDS011;35901;48.694;9.476;2023-03-23T02:34:27;3.83;;;3.53;;
50012;SDS011;35901;48.694;9.476;2023-03-23T02:37:03;4.00;;;3.47;;
50012;SDS011;35901;48.694;9.476;2023-03-23T02:39:40;4.37;;;3.97;;
50012;SDS011;35901;48.694;9.476;2023-03-23T02:42:15;5.93;;;4.40;;
50012;SDS011;35901;48.694;9.476;2023-03-23T02:44:45;4.40;;;4.00;;
50012;SDS011;35901;48.694;9.476;2023-03-23T02:47:24;4.70;;;4.30;;
50012;SDS011;35901;48.694;9.476;2023-03-23T02:49:53;4.87;;;4.40;;
50012;SDS011;35901;48.694;9.476;2023-03-23T02:52:21;4.70;;;4.20;;
50012;SDS011;35901;48.694;9.476;2023-03-23T02:54:51;5.07;;;3.63;;
50012;SDS011;35901;48.694;9.476;2023-03-23T02:57:19;4.23;;;3.83;;
50012;SDS011;35901;48.694;9.476;2023-03-23T02:59:46;4.20;;;3.80;;
50012;SDS011;35901;48.694;9.476;2023-03-23T03:02:13;6.43;;;4.07;;
50012;SDS011;35901;48.694;9.476;2023-03-23T03:04:45;4.40;;;3.83;;
50012;SDS011;35901;48.694;9.476;2023-03-23T03:07:30;4.30;;;3.90;;
50012;SDS011;35901;48.694;9.476;2023-03-23T03:13:12;4.50;;;4.10;;
50012;SDS011;35901;48.694;9.476;2023-03-23T03:18:42;4.57;;;4.10;;
50012;SDS011;35901;48.694;9.476;2023-03-23T03:21:12;5.47;;;4.40;;
50012;SDS011;35901;48.694;9.476;2023-03-23T03:23:42;5.37;;;4.60;;
50012;SDS011;35901;48.694;9.476;2023-03-23T03:26:10;4.63;;;4.13;;
50012;SDS011;35901;48.694;9.476;2023-03-23T03:28:48;7.43;;;4.20;;
50012;SDS011;35901;48.694;9.476;2023-03-23T03:31:20;5.00;;;4.17;;
50012;SDS011;35901;48.694;9.476;2023-03-23T03:33:58;5.50;;;3.90;;
50012;SDS011;35901;48.694;9.476;2023-03-23T03:36:30;4.37;;;3.97;;
50012;SDS011;35901;48.694;9.476;2023-03-23T03:39:04;4.80;;;4.20;;
50012;SDS011;35901;48.694;9.476;2023-03-23T03:41:34;4.63;;;4.23;;
50012;SDS011;35901;48.694;9.476;2023-03-23T03:44:01;4.90;;;4.40;;
50012;SDS011;35901;48.694;9.476;2023-03-23T03:46:28;5.10;;;4.50;;
50012;SDS011;35901;48.694;9.476;2023-03-23T03:48:59;4.70;;;4.20;;
50012;SDS011;35901;48.694;9.476;2023-03-23T03:51:30;4.70;;;4.30;;
50012;SDS011;35901;48.694;9.476;2023-03-23T03:53:57;4.57;;;3.83;;
50012;SDS011;35901;48.694;9.476;2023-03-23T03:56:23;4.90;;;4.20;;
50012;SDS011;35901;48.694;9.476;2023-03-23T03:59:02;4.63;;;4.13;;
50012;SDS011;35901;48.694;9.476;2023-03-23T04:02:03;6.43;;;4.63;;
50012;SDS011;35901;48.694;9.476;2023-03-23T04:04:29;5.07;;;4.43;;
50012;SDS011;35901;48.694;9.476;2023-03-23T04:06:55;4.07;;;3.70;;
50012;SDS011;35901;48.694;9.476;2023-03-23T04:09:22;5.77;;;4.20;;
50012;SDS011;35901;48.694;9.476;2023-03-23T04:11:48;4.20;;;3.80;;
50012;SDS011;35901;48.694;9.476;2023-03-23T04:14:33;5.50;;;4.30;;
50012;SDS011;35901;48.694;9.476;2023-03-23T04:16:59;4.13;;;3.80;;
50012;SDS011;35901;48.694;9.476;2023-03-23T04:19:26;4.67;;;4.20;;
50012;SDS011;35901;48.694;9.476;2023-03-23T04:21:54;5.30;;;4.30;;
50012;SDS011;35901;48.694;9.476;2023-03-23T04:24:20;5.30;;;4.67;;
50012;SDS011;35901;48.694;9.476;2023-03-23T04:26:47;4.10;;;3.80;;
50012;SDS011;35901;48.694;9.476;2023-03-23T04:29:21;4.43;;;4.03;;
50012;SDS011;35901;48.694;9.476;2023-03-23T04:32:05;4.43;;;4.03;;
50012;SDS011;35901;48.694;9.476;2023-03-23T04:34:37;4.13;;;3.73;;
50012;SDS011;35901;48.694;9.476;2023-03-23T04:37:02;5.03;;;4.53;;
50012;SDS011;35901;48.694;9.476;2023-03-23T04:39:30;4.70;;;4.27;;
50012;SDS011;35901;48.694;9.476;2023-03-23T04:42:00;4.20;;;3.77;;
50012;SDS011;35901;48.694;9.476;2023-03-23T04:44:48;5.10;;;3.73;;
50012;SDS011;35901;48.694;9.476;2023-03-23T04:47:23;4.40;;;4.00;;
50012;SDS011;35901;48.694;9.476;2023-03-23T04:49:56;5.47;;;3.67;;
50012;SDS011;35901;48.694;9.476;2023-03-23T04:52:31;4.40;;;4.00;;
50012;SDS011;35901;48.694;9.476;2023-03-23T04:54:59;4.23;;;3.80;;
50012;SDS011;35901;48.694;9.476;2023-03-23T04:57:26;3.73;;;3.40;;
50012;SDS011;35901;48.694;9.476;2023-03-23T05:00:11;5.43;;;4.53;;
50012;SDS011;35901;48.694;9.476;2023-03-23T05:02:43;4.57;;;3.87;;
50012;SDS011;35901;48.694;9.476;2023-03-23T05:05:12;4.63;;;4.23;;
50012;SDS011;35901;48.694;9.476;2023-03-23T05:07:39;4.30;;;3.90;;
50012;SDS011;35901;48.694;9.476;2023-03-23T05:10:06;4.67;;;4.17;;
50012;SDS011;35901;48.694;9.476;2023-03-23T05:12:33;5.20;;;4.00;;
50012;SDS011;35901;48.694;9.476;2023-03-23T05:15:04;4.93;;;4.10;;
50012;SDS011;35901;48.694;9.476;2023-03-23T05:17:31;4.37;;;3.97;;
50012;SDS011;35901;48.694;9.476;2023-03-23T05:19:59;5.60;;;3.80;;
50012;SDS011;35901;48.694;9.476;2023-03-23T05:22:34;5.23;;;3.83;;
50012;SDS011;35901;48.694;9.476;2023-03-23T05:25:03;5.00;;;3.97;;
50012;SDS011;35901;48.694;9.476;2023-03-23T05:27:33;4.83;;;4.33;;
50012;SDS011;35901;48.694;9.476;2023-03-23T05:30:08;6.30;;;4.57;;
50012;SDS011;35901;48.694;9.476;2023-03-23T05:32:37;6.60;;;4.40;;
50012;SDS011;35901;48.694;9.476;2023-03-23T05:35:20;5.10;;;4.60;;
50012;SDS011;35901;48.694;9.476;2023-03-23T05:37:50;5.47;;;4.00;;
50012;SDS011;35901;48.694;9.476;2023-03-23T05:40:18;4.43;;;4.00;;
50012;SDS011;35901;48.694;9.476;2023-03-23T05:42:52;4.17;;;3.87;;
50012;SDS011;35901;48.694;9.476;2023-03-23T05:45:25;4.43;;;4.03;;
50012;SDS011;35901;48.694;9.476;2023-03-23T05:47:51;4.93;;;4.03;;
50012;SDS011;35901;48.694;9.476;2023-03-23T05:50:19;4.43;;;4.03;;
50012;SDS011;35901;48.694;9.476;2023-03-23T05:52:46;5.13;;;4.63;;
50012;SDS011;35901;48.694;9.476;2023-03-23T05:55:14;5.40;;;4.17;;
50012;SDS011;35901;48.694;9.476;2023-03-23T05:57:42;4.53;;;3.80;;
50012;SDS011;35901;48.694;9.476;2023-03-23T06:00:31;4.57;;;4.10;;
50012;SDS011;35901;48.694;9.476;2023-03-23T06:03:09;4.00;;;3.70;;
50012;SDS011;35901;48.694;9.476;2023-03-23T06:05:46;4.00;;;3.70;;
50012;SDS011;35901;48.694;9.476;2023-03-23T06:08:16;4.30;;;3.77;;
50012;SDS011;35901;48.694;9.476;2023-03-23T06:10:42;5.33;;;4.40;;
50012;SDS011;35901;48.694;9.476;2023-03-23T06:13:10;5.87;;;4.30;;
50012;SDS011;35901;48.694;9.476;2023-03-23T06:15:45;5.70;;;4.20;;
50012;SDS011;35901;48.694;9.476;2023-03-23T06:18:32;5.10;;;4.37;;
50012;SDS011;35901;48.694;9.476;2023-03-23T06:21:22;4.87;;;4.40;;
50012;SDS011;35901;48.694;9.476;2023-03-23T06:23:52;6.63;;;4.47;;
50012;SDS011;35901;48.694;9.476;2023-03-23T06:26:20;4.70;;;4.30;;
50012;SDS011;35901;48.694;9.476;2023-03-23T06:28:54;5.30;;;4.80;;
50012;SDS011;35901;48.694;9.476;2023-03-23T06:31:19;5.63;;;4.60;;
50012;SDS011;35901;48.694;9.476;2023-03-23T06:33:47;4.83;;;4.40;;
50012;SDS011;35901;48.694;9.476;2023-03-23T06:36:24;6.00;;;5.10;;
50012;SDS011;35901;48.694;9.476;2023-03-23T06:39:14;4.93;;;4.53;;
50012;SDS011;35901;48.694;9.476;2023-03-23T06:42:01;5.53;;;4.97;;
50012;SDS011;35901;48.694;9.476;2023-03-23T06:44:30;5.37;;;4.87;;
50012;SDS011;35901;48.694;9.476;2023-03-23T06:46:56;5.03;;;4.63;;
50012;SDS011;35901;48.694;9.476;2023-03-23T06:49:25;6.27;;;5.30;;
50012;SDS011;35901;48.694;9.476;2023-03-23T06:52:02;7.50;;;5.50;;
50012;SDS011;35901;48.694;9.476;2023-03-23T06:54:30;5.70;;;5.10;;
50012;SDS011;35901;48.694;9.476;2023-03-23T06:57:02;6.43;;;5.40;;
50012;SDS011;35901;48.694;9.476;2023-03-23T06:59:27;5.30;;;4.73;;
50012;SDS011;35901;48.694;9.476;2023-03-23T07:01:54;6.17;;;5.57;;
50012;SDS011;35901;48.694;9.476;2023-03-23T07:04:19;6.03;;;5.43;;
50012;SDS011;35901;48.694;9.476;2023-03-23T07:06:54;5.83;;;5.07;;
50012;SDS011;35901;48.694;9.476;2023-03-23T07:09:21;6.60;;;4.90;;
50012;SDS011;35901;48.694;9.476;2023-03-23T07:11:47;5.87;;;5.00;;
50012;SDS011;35901;48.694;9.476;2023-03-23T07:14:22;5.60;;;5.10;;
50012;SDS011;35901;48.694;9.476;2023-03-23T07:16:48;6.50;;;5.07;;
50012;SDS011;35901;48.694;9.476;2023-03-23T07:19:14;4.90;;;4.40;;
50012;SDS011;35901;48.694;9.476;2023-03-23T07:21:41;4.50;;;4.10;;
50012;SDS011;35901;48.694;9.476;2023-03-23T07:24:10;4.97;;;4.10;;
50012;SDS011;35901;48.694;9.476;2023-03-23T07:26:51;4.60;;;4.10;;
50012;SDS011;35901;48.694;9.476;2023-03-23T07:29:17;6.67;;;4.30;;
50012;SDS011;35901;48.694;9.476;2023-03-23T07:31:46;5.80;;;3.80;;
50012;SDS011;35901;48.694;9.476;2023-03-23T07:34:13;5.70;;;4.23;;
50012;SDS011;35901;48.694;9.476;2023-03-23T07:36:59;4.83;;;4.13;;
50012;SDS011;35901;48.694;9.476;2023-03-23T07:39:27;5.93;;;3.80;;
50012;SDS011;35901;48.694;9.476;2023-03-23T07:41:56;5.70;;;3.90;;
50012;SDS011;35901;48.694;9.476;2023-03-23T07:44:34;7.87;;;3.77;;
50012;SDS011;35901;48.694;9.476;2023-03-23T07:47:05;3.37;;;3.07;;
50012;SDS011;35901;48.694;9.476;2023-03-23T07:49:31;6.97;;;3.40;;
50012;SDS011;35901;48.694;9.476;2023-03-23T07:52:15;4.67;;;3.63;;
50012;SDS011;35901;48.694;9.476;2023-03-23T07:54:41;5.30;;;3.50;;
50012;SDS011;35901;48.694;9.476;2023-03-23T07:57:16;4.47;;;3.63;;
50012;SDS011;35901;48.694;9.476;2023-03-23T07:59:48;7.07;;;4.13;;
50012;SDS011;35901;48.694;9.476;2023-03-23T08:02:13;5.53;;;3.37;;
50012;SDS011;35901;48.694;9.476;2023-03-23T08:04:39;5.33;;;3.70;;
50012;SDS011;35901;48.694;9.476;2023-03-23T08:07:23;5.97;;;3.60;;
50012;SDS011;35901;48.694;9.476;2023-03-23T08:10:01;3.97;;;3.57;;
50012;SDS011;35901;48.694;9.476;2023-03-23T08:12:39;5.30;;;3.60;;
50012;SDS011;35901;48.694;9.476;2023-03-23T08:15:41;4.03;;;3.60;;
50012;SDS011;35901;48.694;9.476;2023-03-23T08:18:37;3.70;;;3.40;;
50012;SDS011;35901;48.694;9.476;2023-03-23T08:21:19;3.90;;;3.23;;
50012;SDS011;35901;48.694;9.476;2023-03-23T08:24:05;3.57;;;3.27;;
50012;SDS011;35901;48.694;9.476;2023-03-23T08:26:54;3.80;;;3.30;;
50012;SDS011;35901;48.694;9.476;2023-03-23T08:29:20;6.00;;;3.20;;
50012;SDS011;35901;48.694;9.476;2023-03-23T08:32:08;3.20;;;2.90;;
50012;SDS011;35901;48.694;9.476;2023-03-23T08:34:50;5.30;;;2.90;;
50012;SDS011;35901;48.694;9.476;2023-03-23T08:37:52;4.30;;;3.90;;
50012;SDS011;35901;48.694;9.476;2023-03-23T08:40:37;4.00;;;3.70;;
50012;SDS011;35901;48.694;9.476;2023-03-23T08:43:36;4.30;;;3.20;;
50012;SDS011;35901;48.694;9.476;2023-03-23T08:46:33;2.97;;;2.73;;
50012;SDS011;35901;48.694;9.476;2023-03-23T08:49:27;3.93;;;2.90;;
50012;SDS011;35901;48.694;9.476;2023-03-23T08:52:20;2.80;;;2.60;;
50012;SDS011;35901;48.694;9.476;2023-03-23T08:55:07;3.00;;;2.70;;
50012;SDS011;35901;48.694;9.476;2023-03-23T08:57:56;2.87;;;2.37;;
50012;SDS011;35901;48.694;9.476;2023-03-23T09:00:43;2.47;;;2.27;;
50012;SDS011;35901;48.694;9.476;2023-03-23T09:03:26;2.87;;;2.40;;
50012;SDS011;35901;48.694;9.476;2023-03-23T09:06:11;3.30;;;2.53;;
50012;SDS011;35901;48.694;9.476;2023-03-23T09:08:44;4.00;;;2.50;;
50012;SDS011;35901;48.694;9.476;2023-03-23T09:11:10;2.37;;;2.17;;
50012;SDS011;35901;48.694;9.476;2023-03-23T09:13:36;2.00;;;1.70;;
50012;SDS011;35901;48.694;9.476;2023-03-23T09:16:03;2.57;;;1.80;;
50012;SDS011;35901;48.694;9.476;2023-03-23T09:18:30;1.90;;;1.80;;
50012;SDS011;35901;48.694;9.476;2023-03-23T09:20:57;2.83;;;1.90;;
50012;SDS011;35901;48.694;9.476;2023-03-23T09:23:24;1.60;;;1.50;;
50012;SDS011;35901;48.694;9.476;2023-03-23T09:25:50;1.70;;;1.60;;
50012;SDS011;35901;48.694;9.476;2023-03-23T09:28:16;1.93;;;1.73;;
50012;SDS011;35901;48.694;9.476;2023-03-23T09:30:43;2.77;;;1.77;;
50012;SDS011;35901;48.694;9.476;2023-03-23T09:33:09;3.00;;;1.80;;
50012;SDS011;35901;48.694;9.476;2023-03-23T09:35:35;2.50;;;2.13;;
50012;SDS011;35901;48.694;9.476;2023-03-23T09:38:03;1.80;;;1.70;;
50012;SDS011;35901;48.694;9.476;2023-03-23T09:40:32;1.70;;;1.60;;
50012;SDS011;35901;48.694;9.476;2023-03-23T09:46:12;1.70;;;1.60;;
50012;SDS011;35901;48.694;9.476;2023-03-23T09:48:52;2.47;;;1.63;;
50012;SDS011;35901;48.694;9.476;2023-03-23T09:54:16;1.93;;;1.67;;
50012;SDS011;35901;48.694;9.476;2023-03-23T09:56:55;1.80;;;1.70;;
50012;SDS011;35901;48.694;9.476;2023-03-23T09:59:36;1.70;;;1.60;;
50012;SDS011;35901;48.694;9.476;2023-03-23T10:02:14;2.47;;;1.80;;
50012;SDS011;35901;48.694;9.476;2023-03-23T10:04:52;1.97;;;1.57;;
50012;SDS011;35901;48.694;9.476;2023-03-23T10:07:22;1.90;;;1.80;;
50012;SDS011;35901;48.694;9.476;2023-03-23T10:09:57;2.47;;;2.00;;
50012;SDS011;35901;48.694;9.476;2023-03-23T10:15:14;2.43;;;1.77;;
50012;SDS011;35901;48.694;9.476;2023-03-23T10:17:44;2.30;;;1.60;;
50012;SDS011;35901;48.694;9.476;2023-03-23T10:20:21;1.87;;;1.50;;
50012;SDS011;35901;48.694;9.476;2023-03-23T10:25:48;2.73;;;1.70;;
50012;SDS011;35901;48.694;9.476;2023-03-23T10:31:08;2.10;;;1.60;;
50012;SDS011;35901;48.694;9.476;2023-03-23T10:33:39;1.70;;;1.60;;
50012;SDS011;35901;48.694;9.476;2023-03-23T10:36:18;1.70;;;1.60;;
50012;SDS011;35901;48.694;9.476;2023-03-23T10:38:47;2.80;;;1.77;;
50012;SDS011;35901;48.694;9.476;2023-03-23T10:41:19;1.83;;;1.60;;
50012;SDS011;35901;48.694;9.476;2023-03-23T10:43:46;1.60;;;1.50;;
50012;SDS011;35901;48.694;9.476;2023-03-23T10:49:18;3.00;;;1.57;;
50012;SDS011;35901;48.694;9.476;2023-03-23T10:52:00;2.30;;;1.40;;
50012;SDS011;35901;48.694;9.476;2023-03-23T10:54:38;2.17;;;1.47;;
50012;SDS011;35901;48.694;9.476;2023-03-23T10:57:13;1.60;;;1.50;;
50012;SDS011;35901;48.694;9.476;2023-03-23T10:59:49;1.40;;;1.30;;
50012;SDS011;35901;48.694;9.476;2023-03-23T11:02:19;1.60;;;1.50;;
50012;SDS011;35901;48.694;9.476;2023-03-23T11:05:05;2.50;;;1.60;;
50012;SDS011;35901;48.694;9.476;2023-03-23T11:07:40;1.87;;;1.50;;
50012;SDS011;35901;48.694;9.476;2023-03-23T11:13:14;1.70;;;1.60;;
50012;SDS011;35901;48.694;9.476;2023-03-23T11:15:41;1.37;;;1.37;;
50012;SDS011;35901;48.694;9.476;2023-03-23T11:18:12;1.87;;;1.70;;
50012;SDS011;35901;48.694;9.476;2023-03-23T11:20:45;1.63;;;1.53;;
50012;SDS011;35901;48.694;9.476;2023-03-23T11:26:11;3.27;;;1.60;;
50012;SDS011;35901;48.694;9.476;2023-03-23T11:28:55;1.80;;;1.70;;
50012;SDS011;35901;48.694;9.476;2023-03-23T11:31:24;2.90;;;1.60;;
50012;SDS011;35901;48.694;9.476;2023-03-23T11:34:01;2.70;;;1.70;;
50012;SDS011;35901;48.694;9.476;2023-03-23T11:36:40;1.40;;;1.40;;
50012;SDS011;35901;48.694;9.476;2023-03-23T11:39:18;1.73;;;1.63;;
50012;SDS011;35901;48.694;9.476;2023-03-23T11:41:56;3.00;;;1.70;;
50012;SDS011;35901;48.694;9.476;2023-03-23T11:44:24;1.70;;;1.60;;
50012;SDS011;35901;48.694;9.476;2023-03-23T11:47:02;2.00;;;1.80;;
50012;SDS011;35901;48.694;9.476;2023-03-23T11:55:08;1.60;;;1.50;;
50012;SDS011;35901;48.694;9.476;2023-03-23T11:57:41;1.80;;;1.70;;
50012;SDS011;35901;48.694;9.476;2023-03-23T12:00:11;1.97;;;1.50;;
50012;SDS011;35901;48.694;9.476;2023-03-23T12:02:48;1.97;;;1.43;;
50012;SDS011;35901;48.694;9.476;2023-03-23T12:08:30;1.87;;;1.73;;
50012;SDS011;35901;48.694;9.476;2023-03-23T12:11:19;1.83;;;1.37;;
50012;SDS011;35901;48.694;9.476;2023-03-23T12:14:12;2.33;;;1.50;;
50012;SDS011;35901;48.694;9.476;2023-03-23T12:16:50;1.70;;;1.60;;
50012;SDS011;35901;48.694;9.476;2023-03-23T12:22:22;1.80;;;1.70;;
50012;SDS011;35901;48.694;9.476;2023-03-23T12:30:21;1.47;;;1.37;;
50012;SDS011;35901;48.694;9.476;2023-03-23T12:35:34;2.37;;;1.80;;
50012;SDS011;35901;48.694;9.476;2023-03-23T12:38:20;3.13;;;1.73;;
50012;SDS011;35901;48.694;9.476;2023-03-23T12:41:10;1.73;;;1.60;;
50012;SDS011;35901;48.694;9.476;2023-03-23T12:49:34;2.10;;;1.60;;
50012;SDS011;35901;48.694;9.476;2023-03-23T12:52:12;1.67;;;1.57;;
50012;SDS011;35901;48.694;9.476;2023-03-23T12:54:53;3.30;;;1.50;;
50012;SDS011;35901;48.694;9.476;2023-03-23T12:57:29;1.70;;;1.60;;
50012;SDS011;35901;48.694;9.476;2023-03-23T13:02:44;1.60;;;1.50;;
50012;SDS011;35901;48.694;9.476;2023-03-23T13:05:25;1.30;;;1.30;;
50012;SDS011;35901;48.694;9.476;2023-03-23T13:10:47;1.90;;;1.70;;
50012;SDS011;35901;48.694;9.476;2023-03-23T13:13:17;2.00;;;1.50;;
50012;SDS011;35901;48.694;9.476;2023-03-23T13:16:06;1.80;;;1.70;;
50012;SDS011;35901;48.694;9.476;2023-03-23T13:21:57;1.90;;;1.80;;
50012;SDS011;35901;48.694;9.476;2023-03-23T13:24:29;1.83;;;1.73;;
50012;SDS011;35901;48.694;9.476;2023-03-23T13:26:59;1.60;;;1.50;;
50012;SDS011;35901;48.694;9.476;2023-03-23T13:29:26;1.87;;;1.60;;
50012;SDS011;35901;48.694;9.476;2023-03-23T13:32:12;2.07;;;1.83;;
50012;SDS011;35901;48.694;9.476;2023-03-23T13:34:41;1.90;;;1.80;;
50012;SDS011;35901;48.694;9.476;2023-03-23T13:37:11;1.73;;;1.63;;
50012;SDS011;35901;48.694;9.476;2023-03-23T13:39:56;1.83;;;1.60;;
50012;SDS011;35901;48.694;9.476;2023-03-23T13:42:38;2.10;;;1.60;;
50012;SDS011;35901;48.694;9.476;2023-03-23T13:45:22;1.60;;;1.50;;
50012;SDS011;35901;48.694;9.476;2023-03-23T13:53:43;3.10;;;1.90;;
50012;SDS011;35901;48.694;9.476;2023-03-23T13:56:16;2.60;;;1.90;;
50012;SDS011;35901;48.694;9.476;2023-03-23T13:58:48;2.93;;;1.80;;
50012;SDS011;35901;48.694;9.476;2023-03-23T14:01:29;1.87;;;1.77;;
50012;SDS011;35901;48.694;9.476;2023-03-23T14:04:07;1.90;;;1.80;;
50012;SDS011;35901;48.694;9.476;2023-03-23T14:06:39;2.30;;;1.77;;
50012;SDS011;35901;48.694;9.476;2023-03-23T14:09:23;1.93;;;1.70;;
50012;SDS011;35901;48.694;9.476;2023-03-23T14:12:00;2.53;;;1.80;;
50012;SDS011;35901;48.694;9.476;2023-03-23T14:14:34;3.73;;;1.83;;
50012;SDS011;35901;48.694;9.476;2023-03-23T14:17:07;1.90;;;1.70;;
50012;SDS011;35901;48.694;9.476;2023-03-23T14:19:38;2.40;;;1.70;;
50012;SDS011;35901;48.694;9.476;2023-03-23T14:22:16;1.80;;;1.70;;
50012;SDS011;35901;48.694;9.476;2023-03-23T14:24:47;3.30;;;2.83;;
50012;SDS011;35901;48.694;9.476;2023-03-23T14:27:17;4.60;;;3.60;;
50012;SDS011;35901;48.694;9.476;2023-03-23T14:29:46;3.27;;;2.60;;
50012;SDS011;35901;48.694;9.476;2023-03-23T14:32:23;2.60;;;1.90;;
50012;SDS011;35901;48.694;9.476;2023-03-23T14:34:51;2.27;;;1.87;;
50012;SDS011;35901;48.694;9.476;2023-03-23T14:37:18;1.87;;;1.77;;
50012;SDS011;35901;48.694;9.476;2023-03-23T14:39:46;2.10;;;1.90;;
50012;SDS011;35901;48.694;9.476;2023-03-23T14:42:14;2.00;;;1.80;;
50012;SDS011;35901;48.694;9.476;2023-03-23T14:44:43;4.77;;;1.77;;
50012;SDS011;35901;48.694;9.476;2023-03-23T14:47:30;2.13;;;1.80;;
50012;SDS011;35901;48.694;9.476;2023-03-23T14:50:04;2.17;;;2.00;;
50012;SDS011;35901;48.694;9.476;2023-03-23T14:52:47;2.97;;;2.30;;
50012;SDS011;35901;48.694;9.476;2023-03-23T14:55:14;2.17;;;1.97;;
50012;SDS011;35901;48.694;9.476;2023-03-23T14:57:42;2.40;;;2.00;;
50012;SDS011;35901;48.694;9.476;2023-03-23T15:02:43;3.43;;;1.77;;
50012;SDS011;35901;48.694;9.476;2023-03-23T15:05:16;1.97;;;1.87;;
50012;SDS011;35901;48.694;9.476;2023-03-23T15:07:47;2.33;;;2.00;;
50012;SDS011;35901;48.694;9.476;2023-03-23T15:10:19;2.07;;;1.83;;
50012;SDS011;35901;48.694;9.476;2023-03-23T15:12:46;2.10;;;1.90;;
50012;SDS011;35901;48.694;9.476;2023-03-23T15:15:21;2.20;;;2.00;;
50012;SDS011;35901;48.694;9.476;2023-03-23T15:17:50;2.93;;;2.40;;
50012;SDS011;35901;48.694;9.476;2023-03-23T15:22:47;2.20;;;2.00;;
50012;SDS011;35901;48.694;9.476;2023-03-23T15:25:21;2.20;;;2.07;;
50012;SDS011;35901;48.694;9.476;2023-03-23T15:27:57;2.30;;;2.10;;
50012;SDS011;35901;48.694;9.476;2023-03-23T15:30:33;2.23;;;2.03;;
50012;SDS011;35901;48.694;9.476;2023-03-23T15:33:12;1.90;;;1.80;;
50012;SDS011;35901;48.694;9.476;2023-03-23T15:35:39;2.57;;;2.00;;
50012;SDS011;35901;48.694;9.476;2023-03-23T15:38:17;2.33;;;2.13;;
50012;SDS011;35901;48.694;9.476;2023-03-23T15:40:48;3.80;;;3.40;;
50012;SDS011;35901;48.694;9.476;2023-03-23T15:43:20;2.33;;;2.13;;
50012;SDS011;35901;48.694;9.476;2023-03-23T15:48:31;2.50;;;2.00;;
50012;SDS011;35901;48.694;9.476;2023-03-23T15:50:58;2.03;;;1.83;;
50012;SDS011;35901;48.694;9.476;2023-03-23T15:53:29;2.77;;;2.00;;
50012;SDS011;35901;48.694;9.476;2023-03-23T15:55:55;2.30;;;2.10;;
50012;SDS011;35901;48.694;9.476;2023-03-23T15:58:24;2.37;;;2.17;;
50012;SDS011;35901;48.694;9.476;2023-03-23T16:00:50;2.73;;;2.50;;
50012;SDS011;35901;48.694;9.476;2023-03-23T16:03:19;2.40;;;2.20;;
50012;SDS011;35901;48.694;9.476;2023-03-23T16:05:49;3.30;;;2.20;;
50012;SDS011;35901;48.694;9.476;2023-03-23T16:08:15;2.80;;;2.40;;
50012;SDS011;35901;48.694;9.476;2023-03-23T16:10:41;3.67;;;1.90;;
50012;SDS011;35901;48.694;9.476;2023-03-23T16:13:07;2.43;;;2.23;;
50012;SDS011;35901;48.694;9.476;2023-03-23T16:15:33;2.37;;;2.17;;
50012;SDS011;35901;48.694;9.476;2023-03-23T16:17:58;2.87;;;2.10;;
50012;SDS011;35901;48.694;9.476;2023-03-23T16:20:24;2.00;;;1.90;;
50012;SDS011;35901;48.694;9.476;2023-03-23T16:22:52;2.13;;;2.00;;
50012;SDS011;35901;48.694;9.476;2023-03-23T16:25:18;2.67;;;2.40;;
50012;SDS011;35901;48.694;9.476;2023-03-23T16:27:44;2.90;;;2.40;;
50012;SDS011;35901;48.694;9.476;2023-03-23T16:30:15;2.60;;;2.40;;
50012;SDS011;35901;48.694;9.476;2023-03-23T16:32:52;2.93;;;2.50;;
50012;SDS011;35901;48.694;9.476;2023-03-23T16:35:18;3.73;;;2.57;;
50012;SDS011;35901;48.694;9.476;2023-03-23T16:37:49;2.53;;;2.00;;
50012;SDS011;35901;48.694;9.476;2023-03-23T16:40:17;2.40;;;2.20;;
50012;SDS011;35901;48.694;9.476;2023-03-23T16:42:44;3.77;;;2.87;;
50012;SDS011;35901;48.694;9.476;2023-03-23T16:45:10;3.90;;;2.27;;
50012;SDS011;35901;48.694;9.476;2023-03-23T16:47:37;2.40;;;2.20;;
50012;SDS011;35901;48.694;9.476;2023-03-23T16:50:04;2.93;;;2.30;;
50012;SDS011;35901;48.694;9.476;2023-03-23T16:52:31;2.60;;;2.40;;
50012;SDS011;35901;48.694;9.476;2023-03-23T16:54:57;2.40;;;2.20;;